sensor_id;sensor_type;location;lat;lon;timestamp;pressure;altitude;pressure_sealevel;temperature;humidity
84083;BME280;74174;52.224;6.878;2024-03-23T00:53:49;100670.63;;;7.70;95.34
84083;BME280;74174;52.224;6.878;2024-03-23T00:56:14;100672.81;;;7.66;95.34
84083;BME280;74174;52.224;6.878;2024-03-23T00:58:39;100660.25;;;7.68;95.62
84083;BME280;74174;52.224;6.878;2024-03-23T01:01:05;100675.66;;;7.64;95.65
84083;BME280;74174;52.224;6.878;2024-03-23T01:03:30;100680.94;;;7.64;95.24
84083;BME280;74174;52.224;6.878;2024-03-23T01:06:00;100633.66;;;7.35;95.58
84083;BME280;74174;52.224;6.878;2024-03-23T01:08:25;100675.41;;;7.59;96.37
84083;BME280;74174;52.224;6.878;2024-03-23T01:10:58;100682.75;;;7.64;95.77
84083;BME280;74174;52.224;6.878;2024-03-23T01:13:24;100667.50;;;7.59;95.71
84083;BME280;74174;52.224;6.878;2024-03-23T01:15:50;100636.41;;;7.48;95.79
84083;BME280;74174;52.224;6.878;2024-03-23T01:18:20;100656.34;;;7.57;96.31
84083;BME280;74174;52.224;6.878;2024-03-23T01:20:46;100653.09;;;7.55;95.99
84083;BME280;74174;52.224;6.878;2024-03-23T01:23:12;100661.00;;;7.55;96.20
84083;BME280;74174;52.224;6.878;2024-03-23T01:25:38;100644.13;;;7.50;95.91
84083;BME280;74174;52.224;6.878;2024-03-23T01:28:04;100644.56;;;7.53;95.96
84083;BME280;74174;52.224;6.878;2024-03-23T01:30:34;100638.63;;;7.51;96.14
84083;BME280;74174;52.224;6.878;2024-03-23T01:33:00;100634.34;;;7.44;97.07
84083;BME280;74174;52.224;6.878;2024-03-23T01:35:25;100644.94;;;7.50;96.19
84083;BME280;74174;52.224;6.878;2024-03-23T01:37:51;100620.06;;;7.32;96.66
84083;BME280;74174;52.224;6.878;2024-03-23T01:40:18;100653.22;;;7.47;96.73
84083;BME280;74174;52.224;6.878;2024-03-23T01:42:55;100624.03;;;7.21;96.66
84083;BME280;74174;52.224;6.878;2024-03-23T01:45:21;100646.06;;;7.35;96.72
84083;BME280;74174;52.224;6.878;2024-03-23T01:47:47;100638.31;;;7.33;96.28
84083;BME280;74174;52.224;6.878;2024-03-23T01:50:13;100635.94;;;7.38;96.38
84083;BME280;74174;52.224;6.878;2024-03-23T01:52:39;100621.50;;;7.34;96.26
84083;BME280;74174;52.224;6.878;2024-03-23T01:55:04;100624.97;;;7.35;96.69
84083;BME280;74174;52.224;6.878;2024-03-23T01:57:30;100607.97;;;7.37;96.11
84083;BME280;74174;52.224;6.878;2024-03-23T01:59:56;100600.81;;;7.31;95.95
84083;BME280;74174;52.224;6.878;2024-03-23T02:02:21;100609.53;;;7.32;96.34
84083;BME280;74174;52.224;6.878;2024-03-23T02:04:47;100602.00;;;7.29;95.98
84083;BME280;74174;52.224;6.878;2024-03-23T02:07:12;100610.94;;;7.28;96.02
84083;BME280;74174;52.224;6.878;2024-03-23T02:09:37;100596.50;;;7.24;96.39
84083;BME280;74174;52.224;6.878;2024-03-23T02:12:03;100607.03;;;7.24;96.46
84083;BME280;74174;52.224;6.878;2024-03-23T02:14:29;100609.50;;;7.25;95.99
84083;BME280;74174;52.224;6.878;2024-03-23T02:16:55;100606.66;;;7.27;96.30
84083;BME280;74174;52.224;6.878;2024-03-23T02:19:20;100602.22;;;7.27;95.96
84083;BME280;74174;52.224;6.878;2024-03-23T02:21:45;100607.84;;;7.24;95.74
84083;BME280;74174;52.224;6.878;2024-03-23T02:24:12;100584.44;;;7.08;95.73
84083;BME280;74174;52.224;6.878;2024-03-23T02:26:37;100609.25;;;7.20;95.81
84083;BME280;74174;52.224;6.878;2024-03-23T02:29:03;100610.88;;;7.21;95.63
84083;BME280;74174;52.224;6.878;2024-03-23T02:31:28;100607.00;;;7.17;96.16
84083;BME280;74174;52.224;6.878;2024-03-23T02:33:55;100601.94;;;7.16;95.65
84083;BME280;74174;52.224;6.878;2024-03-23T02:36:20;100598.66;;;7.14;95.80
84083;BME280;74174;52.224;6.878;2024-03-23T02:38:46;100599.47;;;7.14;95.51
84083;BME280;74174;52.224;6.878;2024-03-23T02:41:12;100591.56;;;7.14;95.93
84083;BME280;74174;52.224;6.878;2024-03-23T02:43:37;100562.53;;;7.08;95.88
84083;BME280;74174;52.224;6.878;2024-03-23T02:46:03;100559.31;;;7.12;95.96
84083;BME280;74174;52.224;6.878;2024-03-23T02:48:29;100551.41;;;7.12;95.74
84083;BME280;74174;52.224;6.878;2024-03-23T02:50:55;100532.28;;;6.97;95.53
84083;BME280;74174;52.224;6.878;2024-03-23T02:53:20;100552.44;;;7.11;95.58
84083;BME280;74174;52.224;6.878;2024-03-23T02:55:46;100522.72;;;6.96;95.21
84083;BME280;74174;52.224;6.878;2024-03-23T02:58:11;100555.06;;;7.11;95.51
84083;BME280;74174;52.224;6.878;2024-03-23T03:00:36;100546.94;;;7.06;95.71
84083;BME280;74174;52.224;6.878;2024-03-23T03:03:02;100543.47;;;7.06;95.28
84083;BME280;74174;52.224;6.878;2024-03-23T03:05:28;100546.09;;;7.06;95.46
84083;BME280;74174;52.224;6.878;2024-03-23T03:07:53;100550.75;;;7.04;95.07
84083;BME280;74174;52.224;6.878;2024-03-23T03:10:19;100539.56;;;6.95;95.38
84083;BME280;74174;52.224;6.878;2024-03-23T03:12:45;100546.44;;;6.96;95.99
84083;BME280;74174;52.224;6.878;2024-03-23T03:15:10;100552.91;;;6.93;95.27
84083;BME280;74174;52.224;6.878;2024-03-23T03:17:35;100560.41;;;6.90;95.50
84083;BME280;74174;52.224;6.878;2024-03-23T03:20:01;100556.94;;;6.89;95.31
84083;BME280;74174;52.224;6.878;2024-03-23T03:22:26;100553.19;;;6.77;95.40
84083;BME280;74174;52.224;6.878;2024-03-23T03:24:52;100539.13;;;6.64;95.11
84083;BME280;74174;52.224;6.878;2024-03-23T03:27:17;100575.91;;;6.78;95.91
84083;BME280;74174;52.224;6.878;2024-03-23T03:29:43;100563.69;;;6.71;95.50
84083;BME280;74174;52.224;6.878;2024-03-23T03:32:08;100562.44;;;6.67;95.51
84083;BME280;74174;52.224;6.878;2024-03-23T03:34:36;100564.63;;;6.63;95.98
84083;BME280;74174;52.224;6.878;2024-03-23T03:37:01;100562.75;;;6.57;95.85
84083;BME280;74174;52.224;6.878;2024-03-23T03:39:26;100548.09;;;6.48;96.03
84083;BME280;74174;52.224;6.878;2024-03-23T03:41:52;100557.03;;;6.54;96.42
84083;BME280;74174;52.224;6.878;2024-03-23T03:44:17;100536.09;;;6.39;96.09
84083;BME280;74174;52.224;6.878;2024-03-23T03:46:44;100547.91;;;6.50;96.65
84083;BME280;74174;52.224;6.878;2024-03-23T03:49:09;100554.56;;;6.46;97.00
84083;BME280;74174;52.224;6.878;2024-03-23T03:51:37;100544.75;;;6.40;96.99
84083;BME280;74174;52.224;6.878;2024-03-23T03:54:02;100542.53;;;6.37;97.21
84083;BME280;74174;52.224;6.878;2024-03-23T03:56:27;100551.63;;;6.34;96.84
84083;BME280;74174;52.224;6.878;2024-03-23T03:58:53;100527.63;;;6.22;97.12
84083;BME280;74174;52.224;6.878;2024-03-23T04:01:19;100508.06;;;6.10;96.39
84083;BME280;74174;52.224;6.878;2024-03-23T04:03:45;100492.16;;;5.97;97.12
84083;BME280;74174;52.224;6.878;2024-03-23T04:06:10;100535.50;;;6.22;96.92
84083;BME280;74174;52.224;6.878;2024-03-23T04:08:37;100537.31;;;6.22;96.95
84083;BME280;74174;52.224;6.878;2024-03-23T04:11:02;100537.53;;;6.20;97.33
84083;BME280;74174;52.224;6.878;2024-03-23T04:13:28;100536.25;;;6.16;97.02
84083;BME280;74174;52.224;6.878;2024-03-23T04:15:56;100531.13;;;6.08;97.75
84083;BME280;74174;52.224;6.878;2024-03-23T04:18:22;100510.38;;;5.99;97.43
84083;BME280;74174;52.224;6.878;2024-03-23T04:20:51;100525.41;;;6.05;97.26
84083;BME280;74174;52.224;6.878;2024-03-23T04:23:17;100532.50;;;6.04;97.50
84083;BME280;74174;52.224;6.878;2024-03-23T04:25:42;100520.72;;;6.00;97.38
84083;BME280;74174;52.224;6.878;2024-03-23T04:28:07;100526.97;;;5.99;97.52
84083;BME280;74174;52.224;6.878;2024-03-23T04:30:34;100518.06;;;6.00;97.73
84083;BME280;74174;52.224;6.878;2024-03-23T04:33:00;100494.66;;;5.84;97.82
84083;BME280;74174;52.224;6.878;2024-03-23T04:35:26;100529.00;;;5.97;97.70
84083;BME280;74174;52.224;6.878;2024-03-23T04:37:58;100515.38;;;5.94;98.02
84083;BME280;74174;52.224;6.878;2024-03-23T04:40:25;100512.75;;;5.94;97.63
84083;BME280;74174;52.224;6.878;2024-03-23T04:42:50;100500.00;;;5.76;97.87
84083;BME280;74174;52.224;6.878;2024-03-23T04:45:16;100529.91;;;5.90;97.43
84083;BME280;74174;52.224;6.878;2024-03-23T04:47:41;100530.28;;;5.87;97.81
84083;BME280;74174;52.224;6.878;2024-03-23T04:50:06;100498.09;;;5.70;98.67
84083;BME280;74174;52.224;6.878;2024-03-23T04:52:32;100524.56;;;5.83;98.62
84083;BME280;74174;52.224;6.878;2024-03-23T04:54:57;100521.28;;;5.81;99.14
84083;BME280;74174;52.224;6.878;2024-03-23T04:57:23;100509.25;;;5.72;98.72
84083;BME280;74174;52.224;6.878;2024-03-23T04:59:48;100514.59;;;5.79;98.36
84083;BME280;74174;52.224;6.878;2024-03-23T05:02:14;100519.84;;;5.79;98.32
84083;BME280;74174;52.224;6.878;2024-03-23T05:04:40;100521.19;;;5.75;98.82
84083;BME280;74174;52.224;6.878;2024-03-23T05:07:08;100508.00;;;5.68;98.53
84083;BME280;74174;52.224;6.878;2024-03-23T05:09:33;100511.59;;;5.67;98.49
84083;BME280;74174;52.224;6.878;2024-03-23T05:11:59;100506.34;;;5.67;98.80
84083;BME280;74174;52.224;6.878;2024-03-23T05:14:27;100512.44;;;5.68;98.95
84083;BME280;74174;52.224;6.878;2024-03-23T05:16:54;100493.13;;;5.60;98.58
84083;BME280;74174;52.224;6.878;2024-03-23T05:19:19;100493.25;;;5.52;98.28
84083;BME280;74174;52.224;6.878;2024-03-23T05:21:45;100516.44;;;5.64;98.64
84083;BME280;74174;52.224;6.878;2024-03-23T05:24:11;100490.16;;;5.49;98.17
84083;BME280;74174;52.224;6.878;2024-03-23T05:26:37;100512.72;;;5.58;98.05
84083;BME280;74174;52.224;6.878;2024-03-23T05:29:04;100511.09;;;5.57;98.11
84083;BME280;74174;52.224;6.878;2024-03-23T05:31:31;100505.94;;;5.49;97.72
84083;BME280;74174;52.224;6.878;2024-03-23T05:33:57;100512.28;;;5.54;97.87
84083;BME280;74174;52.224;6.878;2024-03-23T05:36:22;100510.22;;;5.50;98.45
84083;BME280;74174;52.224;6.878;2024-03-23T05:38:49;100520.09;;;5.48;97.82
84083;BME280;74174;52.224;6.878;2024-03-23T05:41:15;100516.63;;;5.47;97.86
84083;BME280;74174;52.224;6.878;2024-03-23T05:43:41;100514.38;;;5.44;98.66
84083;BME280;74174;52.224;6.878;2024-03-23T05:46:06;100510.91;;;5.44;97.72
84083;BME280;74174;52.224;6.878;2024-03-23T05:48:35;100482.97;;;5.22;97.87
84083;BME280;74174;52.224;6.878;2024-03-23T05:51:00;100512.09;;;5.41;97.86
84083;BME280;74174;52.224;6.878;2024-03-23T05:53:27;100511.31;;;5.41;98.16
84083;BME280;74174;52.224;6.878;2024-03-23T05:56:03;100505.22;;;5.40;98.25
84083;BME280;74174;52.224;6.878;2024-03-23T05:58:29;100515.75;;;5.40;98.02
84083;BME280;74174;52.224;6.878;2024-03-23T06:00:58;100521.19;;;5.39;98.01
84083;BME280;74174;52.224;6.878;2024-03-23T06:03:24;100515.94;;;5.39;98.51
84083;BME280;74174;52.224;6.878;2024-03-23T06:05:51;100508.59;;;5.34;97.91
84083;BME280;74174;52.224;6.878;2024-03-23T06:08:16;100518.56;;;5.39;98.14
84083;BME280;74174;52.224;6.878;2024-03-23T06:10:42;100520.53;;;5.37;97.97
84083;BME280;74174;52.224;6.878;2024-03-23T06:13:07;100531.69;;;5.39;98.05
84083;BME280;74174;52.224;6.878;2024-03-23T06:15:33;100523.44;;;5.42;98.30
84083;BME280;74174;52.224;6.878;2024-03-23T06:18:03;100525.44;;;5.40;98.21
84083;BME280;74174;52.224;6.878;2024-03-23T06:20:29;100476.00;;;5.14;97.81
84083;BME280;74174;52.224;6.878;2024-03-23T06:22:54;100516.56;;;5.41;98.36
84083;BME280;74174;52.224;6.878;2024-03-23T06:25:19;100522.88;;;5.46;98.30
84083;BME280;74174;52.224;6.878;2024-03-23T06:27:45;100523.50;;;5.48;98.23
84083;BME280;74174;52.224;6.878;2024-03-23T06:30:11;100516.63;;;5.47;97.93
84083;BME280;74174;52.224;6.878;2024-03-23T06:32:36;100518.16;;;5.56;98.42
84083;BME280;74174;52.224;6.878;2024-03-23T06:35:02;100520.88;;;5.63;98.37
84083;BME280;74174;52.224;6.878;2024-03-23T06:37:34;100517.50;;;5.69;98.39
84083;BME280;74174;52.224;6.878;2024-03-23T06:39:59;100515.59;;;5.78;98.11
84083;BME280;74174;52.224;6.878;2024-03-23T06:42:24;100494.75;;;5.76;98.64
84083;BME280;74174;52.224;6.878;2024-03-23T06:44:50;100529.06;;;6.04;98.04
84083;BME280;74174;52.224;6.878;2024-03-23T06:47:15;100514.09;;;6.04;96.79
84083;BME280;74174;52.224;6.878;2024-03-23T06:49:42;100530.72;;;6.11;96.32
84083;BME280;74174;52.224;6.878;2024-03-23T06:52:07;100509.38;;;6.00;96.31
84083;BME280;74174;52.224;6.878;2024-03-23T06:54:39;100503.88;;;5.95;95.45
84083;BME280;74174;52.224;6.878;2024-03-23T06:57:05;100527.31;;;6.11;95.43
84083;BME280;74174;52.224;6.878;2024-03-23T06:59:31;100531.81;;;6.17;94.50
84083;BME280;74174;52.224;6.878;2024-03-23T07:01:56;100536.88;;;6.18;94.76
84083;BME280;74174;52.224;6.878;2024-03-23T07:04:23;100535.50;;;6.22;93.76
84083;BME280;74174;52.224;6.878;2024-03-23T07:06:48;100532.63;;;6.17;93.92
84083;BME280;74174;52.224;6.878;2024-03-23T07:09:13;100522.84;;;6.11;93.97
84083;BME280;74174;52.224;6.878;2024-03-23T07:11:40;100533.25;;;6.19;94.41
84083;BME280;74174;52.224;6.878;2024-03-23T07:14:06;100516.84;;;6.17;94.20
84083;BME280;74174;52.224;6.878;2024-03-23T07:16:32;100482.75;;;6.09;94.25
84083;BME280;74174;52.224;6.878;2024-03-23T07:18:57;100518.91;;;6.43;94.11
84083;BME280;74174;52.224;6.878;2024-03-23T07:21:24;100531.03;;;6.44;93.29
84083;BME280;74174;52.224;6.878;2024-03-23T07:23:49;100531.53;;;6.54;93.58
84083;BME280;74174;52.224;6.878;2024-03-23T07:26:15;100522.69;;;6.62;93.48
84083;BME280;74174;52.224;6.878;2024-03-23T07:28:40;100528.81;;;6.69;92.35
84083;BME280;74174;52.224;6.878;2024-03-23T07:31:11;100537.03;;;6.80;91.37
84083;BME280;74174;52.224;6.878;2024-03-23T07:33:43;100501.09;;;6.73;90.50
84083;BME280;74174;52.224;6.878;2024-03-23T07:36:09;100514.13;;;6.81;90.52
84083;BME280;74174;52.224;6.878;2024-03-23T07:38:34;100507.47;;;6.85;90.01
84083;BME280;74174;52.224;6.878;2024-03-23T07:41:07;100511.91;;;6.84;89.59
84083;BME280;74174;52.224;6.878;2024-03-23T07:43:34;100531.69;;;7.02;89.24
84083;BME280;74174;52.224;6.878;2024-03-23T07:46:00;100511.03;;;7.05;88.95
84083;BME280;74174;52.224;6.878;2024-03-23T07:48:26;100524.31;;;7.18;88.62
84083;BME280;74174;52.224;6.878;2024-03-23T07:53:26;100512.22;;;7.30;87.02
84083;BME280;74174;52.224;6.878;2024-03-23T07:55:54;100515.50;;;7.39;87.87
84083;BME280;74174;52.224;6.878;2024-03-23T07:58:19;100515.53;;;7.52;87.60
84083;BME280;74174;52.224;6.878;2024-03-23T08:00:45;100517.75;;;7.48;86.30
84083;BME280;74174;52.224;6.878;2024-03-23T08:03:10;100512.66;;;7.40;85.45
84083;BME280;74174;52.224;6.878;2024-03-23T08:05:35;100514.44;;;7.33;86.36
84083;BME280;74174;52.224;6.878;2024-03-23T08:08:01;100493.84;;;7.09;85.66
84083;BME280;74174;52.224;6.878;2024-03-23T08:10:27;100512.97;;;7.24;85.83
84083;BME280;74174;52.224;6.878;2024-03-23T08:12:53;100506.25;;;7.22;86.50
84083;BME280;74174;52.224;6.878;2024-03-23T08:15:18;100513.81;;;7.31;86.66
84083;BME280;74174;52.224;6.878;2024-03-23T08:17:43;100494.91;;;7.21;86.97
84083;BME280;74174;52.224;6.878;2024-03-23T08:20:09;100493.06;;;7.15;85.35
84083;BME280;74174;52.224;6.878;2024-03-23T08:22:35;100519.47;;;7.28;85.86
84083;BME280;74174;52.224;6.878;2024-03-23T08:25:00;100500.84;;;7.30;86.04
84083;BME280;74174;52.224;6.878;2024-03-23T08:27:27;100512.88;;;7.45;85.12
84083;BME280;74174;52.224;6.878;2024-03-23T08:29:53;100513.69;;;7.46;85.73
84083;BME280;74174;52.224;6.878;2024-03-23T08:32:18;100495.84;;;7.41;85.81
84083;BME280;74174;52.224;6.878;2024-03-23T08:34:45;100511.53;;;7.62;85.38
84083;BME280;74174;52.224;6.878;2024-03-23T08:37:10;100506.28;;;7.69;83.79
84083;BME280;74174;52.224;6.878;2024-03-23T08:39:36;100510.94;;;7.67;83.55
84083;BME280;74174;52.224;6.878;2024-03-23T08:42:02;100513.75;;;7.65;82.44
84083;BME280;74174;52.224;6.878;2024-03-23T08:44:27;100497.38;;;7.70;82.88
84083;BME280;74174;52.224;6.878;2024-03-23T08:46:55;100505.53;;;7.82;82.13
84083;BME280;74174;52.224;6.878;2024-03-23T08:49:22;100507.97;;;8.03;82.99
84083;BME280;74174;52.224;6.878;2024-03-23T08:51:48;100494.00;;;8.22;81.55
84083;BME280;74174;52.224;6.878;2024-03-23T08:54:14;100511.94;;;8.59;80.77
84083;BME280;74174;52.224;6.878;2024-03-23T08:56:40;100511.31;;;8.51;78.42
84083;BME280;74174;52.224;6.878;2024-03-23T08:59:05;100505.03;;;8.32;79.08
84083;BME280;74174;52.224;6.878;2024-03-23T09:01:31;100506.59;;;8.20;78.24
84083;BME280;74174;52.224;6.878;2024-03-23T09:03:56;100525.69;;;8.22;79.27
84083;BME280;74174;52.224;6.878;2024-03-23T09:06:21;100517.34;;;8.12;78.36
84083;BME280;74174;52.224;6.878;2024-03-23T09:08:47;100518.19;;;8.19;78.23
84083;BME280;74174;52.224;6.878;2024-03-23T09:11:14;100458.06;;;8.08;76.80
84083;BME280;74174;52.224;6.878;2024-03-23T09:13:40;100508.06;;;8.62;75.79
84083;BME280;74174;52.224;6.878;2024-03-23T09:16:07;100496.88;;;8.73;75.25
84083;BME280;74174;52.224;6.878;2024-03-23T09:18:35;100497.88;;;8.98;74.63
84083;BME280;74174;52.224;6.878;2024-03-23T09:21:01;100490.09;;;9.16;74.64
84083;BME280;74174;52.224;6.878;2024-03-23T09:23:28;100504.53;;;9.20;73.98
84083;BME280;74174;52.224;6.878;2024-03-23T09:25:54;100486.19;;;9.32;74.77
84083;BME280;74174;52.224;6.878;2024-03-23T09:28:19;100503.06;;;9.37;73.19
84083;BME280;74174;52.224;6.878;2024-03-23T09:30:44;100502.03;;;9.32;72.10
84083;BME280;74174;52.224;6.878;2024-03-23T09:33:13;100498.59;;;9.25;72.12
84083;BME280;74174;52.224;6.878;2024-03-23T09:35:40;100481.25;;;9.42;74.40
84083;BME280;74174;52.224;6.878;2024-03-23T09:38:06;100466.00;;;9.44;72.26
84083;BME280;74174;52.224;6.878;2024-03-23T09:40:33;100485.03;;;9.65;71.73
84083;BME280;74174;52.224;6.878;2024-03-23T09:42:59;100486.72;;;9.53;69.58
84083;BME280;74174;52.224;6.878;2024-03-23T09:45:29;100477.16;;;9.46;71.35
84083;BME280;74174;52.224;6.878;2024-03-23T09:47:55;100472.66;;;9.53;68.81
84083;BME280;74174;52.224;6.878;2024-03-23T09:50:27;100491.28;;;9.78;69.39
84083;BME280;74174;52.224;6.878;2024-03-23T09:52:52;100474.72;;;9.89;67.88
84083;BME280;74174;52.224;6.878;2024-03-23T09:55:19;100465.31;;;9.93;68.55
84083;BME280;74174;52.224;6.878;2024-03-23T09:57:45;100460.31;;;10.09;67.63
84083;BME280;74174;52.224;6.878;2024-03-23T10:00:11;100457.44;;;10.11;66.38
84083;BME280;74174;52.224;6.878;2024-03-23T10:02:37;100458.41;;;9.92;65.05
84083;BME280;74174;52.224;6.878;2024-03-23T10:05:03;100461.09;;;9.85;65.26
84083;BME280;74174;52.224;6.878;2024-03-23T10:07:29;100458.38;;;9.98;66.56
84083;BME280;74174;52.224;6.878;2024-03-23T10:09:55;100454.94;;;10.22;64.94
84083;BME280;74174;52.224;6.878;2024-03-23T10:12:21;100453.63;;;10.38;66.22
84083;BME280;74174;52.224;6.878;2024-03-23T10:14:46;100423.19;;;10.47;65.68
84083;BME280;74174;52.224;6.878;2024-03-23T10:17:17;100424.75;;;10.73;66.06
84083;BME280;74174;52.224;6.878;2024-03-23T10:19:47;100431.81;;;10.97;64.70
84083;BME280;74174;52.224;6.878;2024-03-23T10:22:18;100440.06;;;10.71;61.33
84083;BME280;74174;52.224;6.878;2024-03-23T10:24:44;100438.25;;;10.47;62.92
84083;BME280;74174;52.224;6.878;2024-03-23T10:27:09;100446.16;;;10.28;62.22
84083;BME280;74174;52.224;6.878;2024-03-23T10:29:38;100443.69;;;10.02;62.83
84083;BME280;74174;52.224;6.878;2024-03-23T10:34:54;100423.72;;;9.68;62.02
84083;BME280;74174;52.224;6.878;2024-03-23T10:37:20;100395.47;;;9.62;61.87
84083;BME280;74174;52.224;6.878;2024-03-23T10:39:46;100415.53;;;9.77;62.89
84083;BME280;74174;52.224;6.878;2024-03-23T10:42:11;100448.31;;;10.07;60.35
84083;BME280;74174;52.224;6.878;2024-03-23T10:44:37;100426.47;;;10.18;57.18
84083;BME280;74174;52.224;6.878;2024-03-23T10:47:05;100435.34;;;10.55;57.87
84083;BME280;74174;52.224;6.878;2024-03-23T10:49:35;100436.78;;;10.51;57.07
84083;BME280;74174;52.224;6.878;2024-03-23T10:52:03;100412.22;;;10.19;57.60
84083;BME280;74174;52.224;6.878;2024-03-23T10:54:30;100434.69;;;10.34;60.02
84083;BME280;74174;52.224;6.878;2024-03-23T10:59:56;100451.22;;;10.30;59.87
84083;BME280;74174;52.224;6.878;2024-03-23T11:02:22;100446.75;;;9.99;60.15
84083;BME280;74174;52.224;6.878;2024-03-23T11:04:48;100406.84;;;9.94;60.65
84083;BME280;74174;52.224;6.878;2024-03-23T11:07:29;100440.22;;;10.33;59.97
84083;BME280;74174;52.224;6.878;2024-03-23T11:09:55;100439.03;;;10.72;56.37
84083;BME280;74174;52.224;6.878;2024-03-23T11:15:03;100451.78;;;10.07;56.30
84083;BME280;74174;52.224;6.878;2024-03-23T11:17:29;100462.53;;;9.81;60.33
84083;BME280;74174;52.224;6.878;2024-03-23T11:20:04;100469.16;;;9.15;66.66
84083;BME280;74174;52.224;6.878;2024-03-23T11:27:39;100454.75;;;11.75;61.25
84083;BME280;74174;52.224;6.878;2024-03-23T11:30:15;100454.00;;;12.86;57.14
84083;BME280;74174;52.224;6.878;2024-03-23T11:32:42;100486.72;;;12.75;56.16
84083;BME280;74174;52.224;6.878;2024-03-23T11:35:08;100480.13;;;11.53;57.06
84083;BME280;74174;52.224;6.878;2024-03-23T11:37:38;100487.63;;;10.10;62.44
84083;BME280;74174;52.224;6.878;2024-03-23T11:40:19;100480.47;;;9.35;65.53
84083;BME280;74174;52.224;6.878;2024-03-23T11:42:44;100468.81;;;8.98;68.12
84083;BME280;74174;52.224;6.878;2024-03-23T11:45:10;100476.34;;;8.88;69.44
84083;BME280;74174;52.224;6.878;2024-03-23T11:47:36;100476.91;;;10.29;67.21
84083;BME280;74174;52.224;6.878;2024-03-23T11:50:01;100469.19;;;11.13;62.93
84083;BME280;74174;52.224;6.878;2024-03-23T11:52:27;100466.50;;;12.09;59.86
84083;BME280;74174;52.224;6.878;2024-03-23T11:55:03;100447.72;;;13.03;58.21
84083;BME280;74174;52.224;6.878;2024-03-23T11:57:29;100452.69;;;12.88;57.38
84083;BME280;74174;52.224;6.878;2024-03-23T11:59:55;100442.13;;;13.28;53.38
84083;BME280;74174;52.224;6.878;2024-03-23T12:02:20;100448.84;;;13.59;52.24
84083;BME280;74174;52.224;6.878;2024-03-23T12:04:46;100433.50;;;13.77;52.59
84083;BME280;74174;52.224;6.878;2024-03-23T12:07:19;100436.94;;;13.61;49.59
84083;BME280;74174;52.224;6.878;2024-03-23T12:09:45;100447.28;;;12.48;52.42
84083;BME280;74174;52.224;6.878;2024-03-23T12:12:18;100448.59;;;12.05;55.28
84083;BME280;74174;52.224;6.878;2024-03-23T12:14:45;100434.91;;;12.19;56.84
84083;BME280;74174;52.224;6.878;2024-03-23T12:17:14;100440.94;;;12.73;53.91
84083;BME280;74174;52.224;6.878;2024-03-23T12:19:41;100424.28;;;13.40;53.73
84083;BME280;74174;52.224;6.878;2024-03-23T12:22:10;100422.38;;;15.02;51.12
84083;BME280;74174;52.224;6.878;2024-03-23T12:24:35;100424.88;;;15.52;49.57
84083;BME280;74174;52.224;6.878;2024-03-23T12:27:04;100410.41;;;15.74;48.20
84083;BME280;74174;52.224;6.878;2024-03-23T12:29:34;100416.59;;;15.32;49.40
84083;BME280;74174;52.224;6.878;2024-03-23T12:32:00;100394.03;;;14.24;51.52
84083;BME280;74174;52.224;6.878;2024-03-23T12:34:26;100408.25;;;13.52;53.31
84083;BME280;74174;52.224;6.878;2024-03-23T12:36:52;100412.22;;;12.86;54.44
84083;BME280;74174;52.224;6.878;2024-03-23T12:39:18;100408.31;;;12.19;57.87
84083;BME280;74174;52.224;6.878;2024-03-23T12:41:46;100406.06;;;11.82;58.77
84083;BME280;74174;52.224;6.878;2024-03-23T12:44:12;100406.97;;;11.28;60.88
84083;BME280;74174;52.224;6.878;2024-03-23T12:46:39;100416.19;;;12.26;60.43
84083;BME280;74174;52.224;6.878;2024-03-23T12:49:04;100408.88;;;12.91;58.33
84083;BME280;74174;52.224;6.878;2024-03-23T12:51:30;100398.72;;;13.84;53.75
84083;BME280;74174;52.224;6.878;2024-03-23T12:53:56;100395.44;;;14.82;50.73
84083;BME280;74174;52.224;6.878;2024-03-23T12:56:21;100372.19;;;13.61;49.49
84083;BME280;74174;52.224;6.878;2024-03-23T12:58:47;100407.41;;;12.25;52.20
84083;BME280;74174;52.224;6.878;2024-03-23T13:01:18;100411.84;;;11.31;54.44
84083;BME280;74174;52.224;6.878;2024-03-23T13:03:46;100413.41;;;10.84;59.13
84083;BME280;74174;52.224;6.878;2024-03-23T13:06:11;100402.69;;;11.45;61.67
84083;BME280;74174;52.224;6.878;2024-03-23T13:08:38;100403.69;;;12.84;57.71
84083;BME280;74174;52.224;6.878;2024-03-23T13:11:05;100390.72;;;13.11;54.45
84083;BME280;74174;52.224;6.878;2024-03-23T13:13:32;100394.13;;;13.51;52.95
84083;BME280;74174;52.224;6.878;2024-03-23T13:15:58;100382.66;;;13.79;51.85
84083;BME280;74174;52.224;6.878;2024-03-23T13:18:23;100396.75;;;12.83;52.88
84083;BME280;74174;52.224;6.878;2024-03-23T13:20:49;100402.09;;;12.37;55.36
84083;BME280;74174;52.224;6.878;2024-03-23T13:23:14;100401.59;;;11.94;55.68
84083;BME280;74174;52.224;6.878;2024-03-23T13:25:40;100371.28;;;11.42;57.59
84083;BME280;74174;52.224;6.878;2024-03-23T13:28:07;100385.41;;;11.24;57.38
84083;BME280;74174;52.224;6.878;2024-03-23T13:30:32;100401.47;;;11.11;58.35
84083;BME280;74174;52.224;6.878;2024-03-23T13:32:58;100386.03;;;11.08;58.53
84083;BME280;74174;52.224;6.878;2024-03-23T13:35:23;100387.56;;;11.75;57.93
84083;BME280;74174;52.224;6.878;2024-03-23T13:37:50;100371.94;;;11.97;56.51
84083;BME280;74174;52.224;6.878;2024-03-23T13:40:15;100386.34;;;12.01;55.48
84083;BME280;74174;52.224;6.878;2024-03-23T13:42:40;100374.97;;;11.41;53.43
84083;BME280;74174;52.224;6.878;2024-03-23T13:45:06;100377.16;;;11.14;53.81
84083;BME280;74174;52.224;6.878;2024-03-23T13:47:33;100376.53;;;11.00;54.78
84083;BME280;74174;52.224;6.878;2024-03-23T13:49:58;100387.88;;;12.08;53.89
84083;BME280;74174;52.224;6.878;2024-03-23T13:52:23;100368.22;;;12.09;54.16
84083;BME280;74174;52.224;6.878;2024-03-23T13:54:51;100384.75;;;12.81;50.22
84083;BME280;74174;52.224;6.878;2024-03-23T13:57:16;100382.13;;;13.21;50.14
84083;BME280;74174;52.224;6.878;2024-03-23T13:59:42;100379.44;;;14.10;47.89
84083;BME280;74174;52.224;6.878;2024-03-23T14:02:07;100367.34;;;14.74;47.03